CheckWX is a tool to help pilots better visualize weather data.  It is not intended as a substitute for an official pre-flight weather briefing.

11:22:38 UTC

KABE TAF
Lehigh Valley International Airport
Allentown, Pennsylvania, USA
KABE 240931Z 2410/2506 VRB02KT P6SM SCT250 FM241600 22005KT P6SM BKN150 FM250100 VRB03KT P6SM OVC050

Jun-24@
10:00 UTC

Jun-24 @ 10:00 UTC

Jun-24@
16:00 UTC

Jun-24 @ 16:00 UTC

KABE 240931Z 2410/2506 VRB02KT P6SM SCT250
Wind
  • Variable at 2 KTS
Cloud Levels
  • Scattered at 25,000' AGL

Jun-24@
16:00 UTC

Jun-24 @ 16:00 UTC

Jun-25@
01:00 UTC

Jun-25 @ 01:00 UTC

FM241600 22005KT P6SM BKN150

From

From Standard forecast or significant change

Wind
  • 220° at 5 KTS
Cloud Levels
  • Broken at 15,000' AGL

Jun-25@
01:00 UTC

Jun-25 @ 01:00 UTC

Jun-25@
06:00 UTC

Jun-25 @ 06:00 UTC

FM250100 VRB03KT P6SM OVC050

From

From Standard forecast or significant change

Wind
  • Variable at 3 KTS
Cloud Levels
  • Overcast at 5,000' AGL